sensor_id;sensor_type;location;lat;lon;timestamp;P1;durP1;ratioP1;P2;durP2;ratioP2
64957;SDS011;51486;50.232;19.208;2023-06-14T00:02:17;4.90;;;2.90;;
64957;SDS011;51486;50.232;19.208;2023-06-14T00:05:03;8.00;;;3.73;;
64957;SDS011;51486;50.232;19.208;2023-06-14T00:07:49;4.97;;;2.70;;
64957;SDS011;51486;50.232;19.208;2023-06-14T00:10:38;3.83;;;2.23;;
64957;SDS011;51486;50.232;19.208;2023-06-14T00:13:27;4.83;;;2.50;;
64957;SDS011;51486;50.232;19.208;2023-06-14T00:16:12;4.70;;;2.67;;
64957;SDS011;51486;50.232;19.208;2023-06-14T00:18:58;5.07;;;2.73;;
64957;SDS011;51486;50.232;19.208;2023-06-14T00:21:45;3.73;;;2.50;;
64957;SDS011;51486;50.232;19.208;2023-06-14T00:24:31;5.57;;;2.70;;
64957;SDS011;51486;50.232;19.208;2023-06-14T00:27:17;6.17;;;2.93;;
64957;SDS011;51486;50.232;19.208;2023-06-14T00:30:03;8.97;;;3.37;;
64957;SDS011;51486;50.232;19.208;2023-06-14T00:32:48;8.90;;;3.67;;
64957;SDS011;51486;50.232;19.208;2023-06-14T00:35:35;6.27;;;3.10;;
64957;SDS011;51486;50.232;19.208;2023-06-14T00:38:21;4.37;;;2.13;;
64957;SDS011;51486;50.232;19.208;2023-06-14T00:41:06;6.57;;;3.53;;
64957;SDS011;51486;50.232;19.208;2023-06-14T00:43:52;6.33;;;3.17;;
64957;SDS011;51486;50.232;19.208;2023-06-14T00:46:40;10.33;;;5.13;;
64957;SDS011;51486;50.232;19.208;2023-06-14T00:49:26;8.50;;;4.07;;
64957;SDS011;51486;50.232;19.208;2023-06-14T00:52:12;8.80;;;4.00;;
64957;SDS011;51486;50.232;19.208;2023-06-14T00:54:59;6.07;;;3.53;;
64957;SDS011;51486;50.232;19.208;2023-06-14T00:57:46;8.30;;;3.30;;
64957;SDS011;51486;50.232;19.208;2023-06-14T01:00:32;21.40;;;4.70;;
64957;SDS011;51486;50.232;19.208;2023-06-14T01:03:18;7.57;;;4.03;;
64957;SDS011;51486;50.232;19.208;2023-06-14T01:15:20;9.60;;;3.87;;
64957;SDS011;51486;50.232;19.208;2023-06-14T01:18:06;5.27;;;3.13;;
64957;SDS011;51486;50.232;19.208;2023-06-14T01:20:52;6.23;;;3.27;;
64957;SDS011;51486;50.232;19.208;2023-06-14T01:23:40;8.63;;;4.10;;
64957;SDS011;51486;50.232;19.208;2023-06-14T01:26:26;7.20;;;4.13;;
64957;SDS011;51486;50.232;19.208;2023-06-14T01:29:14;6.67;;;3.43;;
64957;SDS011;51486;50.232;19.208;2023-06-14T01:32:03;7.13;;;4.40;;
64957;SDS011;51486;50.232;19.208;2023-06-14T01:34:49;6.83;;;3.57;;
64957;SDS011;51486;50.232;19.208;2023-06-14T01:37:34;8.57;;;3.43;;
64957;SDS011;51486;50.232;19.208;2023-06-14T01:40:21;9.27;;;4.10;;
64957;SDS011;51486;50.232;19.208;2023-06-14T01:43:07;7.80;;;4.00;;
64957;SDS011;51486;50.232;19.208;2023-06-14T01:45:53;9.27;;;3.60;;
64957;SDS011;51486;50.232;19.208;2023-06-14T01:48:40;7.67;;;3.90;;
64957;SDS011;51486;50.232;19.208;2023-06-14T01:51:25;6.83;;;3.80;;
64957;SDS011;51486;50.232;19.208;2023-06-14T01:54:11;9.50;;;3.57;;
64957;SDS011;51486;50.232;19.208;2023-06-14T01:56:57;7.57;;;3.70;;
64957;SDS011;51486;50.232;19.208;2023-06-14T01:59:42;8.67;;;3.77;;
64957;SDS011;51486;50.232;19.208;2023-06-14T02:02:33;6.87;;;3.70;;
64957;SDS011;51486;50.232;19.208;2023-06-14T02:05:19;7.77;;;4.70;;
64957;SDS011;51486;50.232;19.208;2023-06-14T02:08:05;6.97;;;4.03;;
64957;SDS011;51486;50.232;19.208;2023-06-14T02:10:51;10.83;;;4.87;;
64957;SDS011;51486;50.232;19.208;2023-06-14T02:13:37;9.23;;;4.30;;
64957;SDS011;51486;50.232;19.208;2023-06-14T02:16:23;6.30;;;3.67;;
64957;SDS011;51486;50.232;19.208;2023-06-14T02:19:10;11.57;;;4.33;;
64957;SDS011;51486;50.232;19.208;2023-06-14T02:21:56;5.80;;;3.67;;
64957;SDS011;51486;50.232;19.208;2023-06-14T02:24:42;7.03;;;3.63;;
64957;SDS011;51486;50.232;19.208;2023-06-14T02:27:28;10.37;;;4.13;;
64957;SDS011;51486;50.232;19.208;2023-06-14T02:30:13;7.77;;;3.63;;
64957;SDS011;51486;50.232;19.208;2023-06-14T02:33:00;8.93;;;4.57;;
64957;SDS011;51486;50.232;19.208;2023-06-14T02:35:46;11.23;;;4.23;;
64957;SDS011;51486;50.232;19.208;2023-06-14T02:38:32;6.13;;;3.70;;
64957;SDS011;51486;50.232;19.208;2023-06-14T02:41:18;8.77;;;4.87;;
64957;SDS011;51486;50.232;19.208;2023-06-14T02:44:04;10.07;;;4.83;;
64957;SDS011;51486;50.232;19.208;2023-06-14T02:46:50;7.97;;;4.27;;
64957;SDS011;51486;50.232;19.208;2023-06-14T02:49:36;6.50;;;4.10;;
64957;SDS011;51486;50.232;19.208;2023-06-14T02:52:21;8.03;;;3.63;;
64957;SDS011;51486;50.232;19.208;2023-06-14T02:55:07;8.57;;;4.83;;
64957;SDS011;51486;50.232;19.208;2023-06-14T02:57:55;7.47;;;4.57;;
64957;SDS011;51486;50.232;19.208;2023-06-14T03:00:40;13.10;;;4.73;;
64957;SDS011;51486;50.232;19.208;2023-06-14T03:03:26;13.13;;;4.27;;
64957;SDS011;51486;50.232;19.208;2023-06-14T03:06:12;9.57;;;4.10;;
64957;SDS011;51486;50.232;19.208;2023-06-14T03:08:59;7.73;;;4.10;;
64957;SDS011;51486;50.232;19.208;2023-06-14T03:11:46;7.13;;;3.33;;
64957;SDS011;51486;50.232;19.208;2023-06-14T03:14:32;9.20;;;4.20;;
64957;SDS011;51486;50.232;19.208;2023-06-14T03:17:18;6.07;;;3.57;;
64957;SDS011;51486;50.232;19.208;2023-06-14T03:20:05;8.97;;;4.40;;
64957;SDS011;51486;50.232;19.208;2023-06-14T03:22:51;8.73;;;4.30;;
64957;SDS011;51486;50.232;19.208;2023-06-14T03:25:38;9.03;;;3.97;;
64957;SDS011;51486;50.232;19.208;2023-06-14T03:28:25;5.50;;;3.27;;
64957;SDS011;51486;50.232;19.208;2023-06-14T03:31:12;8.77;;;4.73;;
64957;SDS011;51486;50.232;19.208;2023-06-14T03:33:58;7.30;;;4.27;;
64957;SDS011;51486;50.232;19.208;2023-06-14T03:36:44;10.07;;;4.60;;
64957;SDS011;51486;50.232;19.208;2023-06-14T03:39:29;7.33;;;4.37;;
64957;SDS011;51486;50.232;19.208;2023-06-14T03:42:15;9.47;;;3.53;;
64957;SDS011;51486;50.232;19.208;2023-06-14T03:45:01;13.07;;;4.80;;
64957;SDS011;51486;50.232;19.208;2023-06-14T03:47:47;9.30;;;4.30;;
64957;SDS011;51486;50.232;19.208;2023-06-14T03:50:33;5.73;;;3.53;;
64957;SDS011;51486;50.232;19.208;2023-06-14T03:53:18;7.77;;;4.27;;
64957;SDS011;51486;50.232;19.208;2023-06-14T03:56:05;10.30;;;4.20;;
64957;SDS011;51486;50.232;19.208;2023-06-14T03:58:52;8.30;;;4.60;;
64957;SDS011;51486;50.232;19.208;2023-06-14T04:01:38;9.93;;;4.07;;
64957;SDS011;51486;50.232;19.208;2023-06-14T04:04:32;8.83;;;3.63;;
64957;SDS011;51486;50.232;19.208;2023-06-14T04:07:18;6.60;;;3.50;;
64957;SDS011;51486;50.232;19.208;2023-06-14T04:10:05;11.13;;;4.20;;
64957;SDS011;51486;50.232;19.208;2023-06-14T04:12:51;6.27;;;3.57;;
64957;SDS011;51486;50.232;19.208;2023-06-14T04:15:37;9.50;;;4.23;;
64957;SDS011;51486;50.232;19.208;2023-06-14T04:18:27;9.40;;;3.47;;
64957;SDS011;51486;50.232;19.208;2023-06-14T04:21:13;9.37;;;4.17;;
64957;SDS011;51486;50.232;19.208;2023-06-14T04:23:58;7.90;;;4.00;;
64957;SDS011;51486;50.232;19.208;2023-06-14T04:26:46;7.87;;;4.03;;
64957;SDS011;51486;50.232;19.208;2023-06-14T04:29:35;7.33;;;4.17;;
64957;SDS011;51486;50.232;19.208;2023-06-14T04:32:21;10.93;;;4.87;;
64957;SDS011;51486;50.232;19.208;2023-06-14T04:35:07;8.17;;;4.70;;
64957;SDS011;51486;50.232;19.208;2023-06-14T04:37:53;12.00;;;5.00;;
64957;SDS011;51486;50.232;19.208;2023-06-14T04:40:39;10.60;;;4.63;;
64957;SDS011;51486;50.232;19.208;2023-06-14T04:43:28;11.20;;;4.03;;
64957;SDS011;51486;50.232;19.208;2023-06-14T04:46:13;23.37;;;5.10;;
64957;SDS011;51486;50.232;19.208;2023-06-14T04:49:00;13.20;;;5.03;;
64957;SDS011;51486;50.232;19.208;2023-06-14T04:51:47;8.30;;;4.17;;
64957;SDS011;51486;50.232;19.208;2023-06-14T04:54:36;20.60;;;5.43;;
64957;SDS011;51486;50.232;19.208;2023-06-14T04:57:27;9.63;;;4.20;;
64957;SDS011;51486;50.232;19.208;2023-06-14T05:00:13;9.73;;;5.47;;
64957;SDS011;51486;50.232;19.208;2023-06-14T05:02:59;11.27;;;5.77;;
64957;SDS011;51486;50.232;19.208;2023-06-14T05:05:46;11.20;;;4.57;;
64957;SDS011;51486;50.232;19.208;2023-06-14T05:08:32;12.70;;;4.93;;
64957;SDS011;51486;50.232;19.208;2023-06-14T05:11:17;8.03;;;5.03;;
64957;SDS011;51486;50.232;19.208;2023-06-14T05:14:03;12.10;;;5.77;;
64957;SDS011;51486;50.232;19.208;2023-06-14T05:16:49;7.63;;;4.03;;
64957;SDS011;51486;50.232;19.208;2023-06-14T05:19:35;13.13;;;5.30;;
64957;SDS011;51486;50.232;19.208;2023-06-14T05:22:22;8.73;;;5.17;;
64957;SDS011;51486;50.232;19.208;2023-06-14T05:25:07;8.80;;;5.23;;
64957;SDS011;51486;50.232;19.208;2023-06-14T05:27:53;8.37;;;5.10;;
64957;SDS011;51486;50.232;19.208;2023-06-14T05:30:40;12.80;;;4.97;;
64957;SDS011;51486;50.232;19.208;2023-06-14T05:33:25;8.20;;;4.93;;
64957;SDS011;51486;50.232;19.208;2023-06-14T05:36:11;11.20;;;4.67;;
64957;SDS011;51486;50.232;19.208;2023-06-14T05:38:57;11.10;;;5.83;;
64957;SDS011;51486;50.232;19.208;2023-06-14T05:41:45;7.27;;;4.33;;
64957;SDS011;51486;50.232;19.208;2023-06-14T05:44:30;12.87;;;4.97;;
64957;SDS011;51486;50.232;19.208;2023-06-14T05:47:16;13.00;;;5.73;;
64957;SDS011;51486;50.232;19.208;2023-06-14T05:50:02;12.57;;;6.37;;
64957;SDS011;51486;50.232;19.208;2023-06-14T05:52:48;22.23;;;6.70;;
64957;SDS011;51486;50.232;19.208;2023-06-14T05:55:33;13.60;;;6.37;;
64957;SDS011;51486;50.232;19.208;2023-06-14T05:58:19;14.07;;;7.10;;
64957;SDS011;51486;50.232;19.208;2023-06-14T06:01:05;22.93;;;7.33;;
64957;SDS011;51486;50.232;19.208;2023-06-14T06:03:51;14.97;;;6.57;;
64957;SDS011;51486;50.232;19.208;2023-06-14T06:06:37;24.43;;;8.07;;
64957;SDS011;51486;50.232;19.208;2023-06-14T06:09:23;12.83;;;7.33;;
64957;SDS011;51486;50.232;19.208;2023-06-14T06:12:09;18.80;;;7.93;;
64957;SDS011;51486;50.232;19.208;2023-06-14T06:14:55;18.43;;;7.77;;
64957;SDS011;51486;50.232;19.208;2023-06-14T06:17:41;21.33;;;8.37;;
64957;SDS011;51486;50.232;19.208;2023-06-14T06:20:27;26.17;;;9.63;;
64957;SDS011;51486;50.232;19.208;2023-06-14T06:23:14;18.80;;;8.63;;
64957;SDS011;51486;50.232;19.208;2023-06-14T06:25:59;31.47;;;11.50;;
64957;SDS011;51486;50.232;19.208;2023-06-14T06:28:45;22.67;;;9.97;;
64957;SDS011;51486;50.232;19.208;2023-06-14T06:31:31;20.70;;;9.40;;
64957;SDS011;51486;50.232;19.208;2023-06-14T06:34:17;24.80;;;9.57;;
64957;SDS011;51486;50.232;19.208;2023-06-14T06:37:03;27.23;;;9.13;;
64957;SDS011;51486;50.232;19.208;2023-06-14T06:39:48;15.83;;;8.47;;
64957;SDS011;51486;50.232;19.208;2023-06-14T06:42:34;19.50;;;9.23;;
64957;SDS011;51486;50.232;19.208;2023-06-14T06:45:20;20.97;;;8.70;;
64957;SDS011;51486;50.232;19.208;2023-06-14T06:48:06;13.97;;;8.13;;
64957;SDS011;51486;50.232;19.208;2023-06-14T06:50:52;23.53;;;8.23;;
64957;SDS011;51486;50.232;19.208;2023-06-14T06:53:37;23.20;;;9.20;;
64957;SDS011;51486;50.232;19.208;2023-06-14T06:56:23;16.70;;;7.83;;
64957;SDS011;51486;50.232;19.208;2023-06-14T06:59:09;19.80;;;7.90;;
64957;SDS011;51486;50.232;19.208;2023-06-14T07:01:55;16.70;;;6.23;;
64957;SDS011;51486;50.232;19.208;2023-06-14T07:04:41;12.90;;;5.77;;
64957;SDS011;51486;50.232;19.208;2023-06-14T07:07:26;12.37;;;5.63;;
64957;SDS011;51486;50.232;19.208;2023-06-14T07:10:12;15.53;;;6.17;;
64957;SDS011;51486;50.232;19.208;2023-06-14T07:12:58;29.80;;;7.10;;
64957;SDS011;51486;50.232;19.208;2023-06-14T07:15:43;12.33;;;5.60;;
64957;SDS011;51486;50.232;19.208;2023-06-14T07:18:29;15.87;;;6.33;;
64957;SDS011;51486;50.232;19.208;2023-06-14T07:21:16;13.57;;;5.40;;
64957;SDS011;51486;50.232;19.208;2023-06-14T07:24:02;14.87;;;5.63;;
64957;SDS011;51486;50.232;19.208;2023-06-14T07:26:47;12.63;;;4.47;;
64957;SDS011;51486;50.232;19.208;2023-06-14T07:29:34;9.30;;;3.60;;
64957;SDS011;51486;50.232;19.208;2023-06-14T07:32:20;9.10;;;4.60;;
64957;SDS011;51486;50.232;19.208;2023-06-14T07:35:05;10.53;;;4.10;;
64957;SDS011;51486;50.232;19.208;2023-06-14T07:37:52;8.67;;;3.80;;
64957;SDS011;51486;50.232;19.208;2023-06-14T07:40:38;6.53;;;3.20;;
64957;SDS011;51486;50.232;19.208;2023-06-14T07:43:23;5.30;;;3.00;;
64957;SDS011;51486;50.232;19.208;2023-06-14T07:46:09;10.67;;;3.43;;
64957;SDS011;51486;50.232;19.208;2023-06-14T07:48:55;5.23;;;2.30;;
64957;SDS011;51486;50.232;19.208;2023-06-14T07:51:41;11.57;;;4.03;;
64957;SDS011;51486;50.232;19.208;2023-06-14T07:54:26;8.30;;;2.93;;
64957;SDS011;51486;50.232;19.208;2023-06-14T07:57:13;2.90;;;1.67;;
64957;SDS011;51486;50.232;19.208;2023-06-14T07:59:58;3.50;;;1.70;;
64957;SDS011;51486;50.232;19.208;2023-06-14T08:02:44;4.70;;;2.33;;
64957;SDS011;51486;50.232;19.208;2023-06-14T08:05:30;2.90;;;1.90;;
64957;SDS011;51486;50.232;19.208;2023-06-14T08:08:16;1.40;;;1.30;;
64957;SDS011;51486;50.232;19.208;2023-06-14T08:11:02;2.67;;;1.40;;
64957;SDS011;51486;50.232;19.208;2023-06-14T08:13:47;3.57;;;1.60;;
64957;SDS011;51486;50.232;19.208;2023-06-14T08:16:33;2.17;;;1.50;;
64957;SDS011;51486;50.232;19.208;2023-06-14T08:19:19;2.20;;;1.40;;
64957;SDS011;51486;50.232;19.208;2023-06-14T08:22:05;1.13;;;1.00;;
64957;SDS011;51486;50.232;19.208;2023-06-14T08:24:51;1.80;;;1.20;;
64957;SDS011;51486;50.232;19.208;2023-06-14T08:27:38;2.10;;;1.37;;
64957;SDS011;51486;50.232;19.208;2023-06-14T08:30:24;1.93;;;1.23;;
64957;SDS011;51486;50.232;19.208;2023-06-14T08:33:09;1.40;;;1.30;;
64957;SDS011;51486;50.232;19.208;2023-06-14T08:35:55;1.33;;;1.07;;
64957;SDS011;51486;50.232;19.208;2023-06-14T08:38:41;1.10;;;1.00;;
64957;SDS011;51486;50.232;19.208;2023-06-14T08:41:27;3.17;;;1.50;;
64957;SDS011;51486;50.232;19.208;2023-06-14T08:44:15;3.10;;;1.73;;
64957;SDS011;51486;50.232;19.208;2023-06-14T08:47:02;3.30;;;1.83;;
64957;SDS011;51486;50.232;19.208;2023-06-14T08:49:49;3.87;;;1.57;;
64957;SDS011;51486;50.232;19.208;2023-06-14T08:52:36;2.03;;;1.43;;
64957;SDS011;51486;50.232;19.208;2023-06-14T08:55:31;2.23;;;1.60;;
64957;SDS011;51486;50.232;19.208;2023-06-14T08:58:18;2.60;;;1.90;;
64957;SDS011;51486;50.232;19.208;2023-06-14T09:01:04;1.77;;;1.47;;
64957;SDS011;51486;50.232;19.208;2023-06-14T09:03:52;1.73;;;1.43;;
64957;SDS011;51486;50.232;19.208;2023-06-14T09:06:40;2.93;;;1.90;;
64957;SDS011;51486;50.232;19.208;2023-06-14T09:09:26;2.00;;;1.80;;
64957;SDS011;51486;50.232;19.208;2023-06-14T09:12:12;1.70;;;1.40;;
64957;SDS011;51486;50.232;19.208;2023-06-14T09:14:58;4.83;;;2.37;;
64957;SDS011;51486;50.232;19.208;2023-06-14T09:17:43;3.37;;;2.37;;
64957;SDS011;51486;50.232;19.208;2023-06-14T09:20:30;3.10;;;1.87;;
64957;SDS011;51486;50.232;19.208;2023-06-14T09:23:20;9.47;;;2.93;;
64957;SDS011;51486;50.232;19.208;2023-06-14T09:26:07;6.07;;;3.03;;
64957;SDS011;51486;50.232;19.208;2023-06-14T09:28:55;7.93;;;3.37;;
64957;SDS011;51486;50.232;19.208;2023-06-14T09:31:40;17.37;;;5.50;;
64957;SDS011;51486;50.232;19.208;2023-06-14T09:34:26;8.67;;;4.83;;
64957;SDS011;51486;50.232;19.208;2023-06-14T09:37:12;7.13;;;3.67;;
64957;SDS011;51486;50.232;19.208;2023-06-14T09:39:58;3.83;;;2.80;;
64957;SDS011;51486;50.232;19.208;2023-06-14T09:42:44;7.37;;;2.30;;
64957;SDS011;51486;50.232;19.208;2023-06-14T09:45:30;4.20;;;2.57;;
64957;SDS011;51486;50.232;19.208;2023-06-14T09:48:17;6.73;;;2.67;;
64957;SDS011;51486;50.232;19.208;2023-06-14T09:51:04;4.73;;;2.60;;
64957;SDS011;51486;50.232;19.208;2023-06-14T09:53:51;2.53;;;1.87;;
64957;SDS011;51486;50.232;19.208;2023-06-14T09:56:38;3.10;;;2.23;;
64957;SDS011;51486;50.232;19.208;2023-06-14T09:59:27;3.17;;;2.03;;
64957;SDS011;51486;50.232;19.208;2023-06-14T10:02:22;3.93;;;2.50;;
64957;SDS011;51486;50.232;19.208;2023-06-14T10:05:09;4.20;;;2.33;;
64957;SDS011;51486;50.232;19.208;2023-06-14T10:08:04;2.87;;;1.97;;
64957;SDS011;51486;50.232;19.208;2023-06-14T10:10:55;2.60;;;1.90;;
64957;SDS011;51486;50.232;19.208;2023-06-14T10:13:41;3.47;;;2.10;;
64957;SDS011;51486;50.232;19.208;2023-06-14T10:16:31;3.00;;;2.00;;
64957;SDS011;51486;50.232;19.208;2023-06-14T10:22:21;1.57;;;1.30;;
64957;SDS011;51486;50.232;19.208;2023-06-14T10:25:25;2.33;;;1.90;;
64957;SDS011;51486;50.232;19.208;2023-06-14T10:28:19;3.13;;;1.87;;
64957;SDS011;51486;50.232;19.208;2023-06-14T10:31:12;3.50;;;1.83;;
64957;SDS011;51486;50.232;19.208;2023-06-14T10:33:59;2.20;;;1.57;;
64957;SDS011;51486;50.232;19.208;2023-06-14T10:36:45;2.17;;;1.70;;
64957;SDS011;51486;50.232;19.208;2023-06-14T10:39:31;1.83;;;1.50;;
64957;SDS011;51486;50.232;19.208;2023-06-14T10:42:17;3.10;;;1.70;;
64957;SDS011;51486;50.232;19.208;2023-06-14T10:45:05;1.63;;;1.30;;
64957;SDS011;51486;50.232;19.208;2023-06-14T10:47:51;4.30;;;1.43;;
64957;SDS011;51486;50.232;19.208;2023-06-14T10:50:38;3.60;;;1.37;;
64957;SDS011;51486;50.232;19.208;2023-06-14T10:53:38;1.57;;;1.00;;
64957;SDS011;51486;50.232;19.208;2023-06-14T10:56:29;1.77;;;1.27;;
64957;SDS011;51486;50.232;19.208;2023-06-14T10:59:16;1.77;;;1.10;;
64957;SDS011;51486;50.232;19.208;2023-06-14T11:02:13;3.40;;;1.40;;
64957;SDS011;51486;50.232;19.208;2023-06-14T11:05:05;2.37;;;1.43;;
64957;SDS011;51486;50.232;19.208;2023-06-14T11:08:07;1.50;;;1.40;;
64957;SDS011;51486;50.232;19.208;2023-06-14T11:10:59;3.07;;;1.30;;
64957;SDS011;51486;50.232;19.208;2023-06-14T11:13:46;5.40;;;2.00;;
64957;SDS011;51486;50.232;19.208;2023-06-14T11:16:31;3.00;;;1.50;;
64957;SDS011;51486;50.232;19.208;2023-06-14T11:19:18;3.03;;;1.43;;
64957;SDS011;51486;50.232;19.208;2023-06-14T11:22:05;2.50;;;1.67;;
64957;SDS011;51486;50.232;19.208;2023-06-14T11:24:50;1.77;;;1.20;;
64957;SDS011;51486;50.232;19.208;2023-06-14T11:27:36;1.30;;;1.00;;
64957;SDS011;51486;50.232;19.208;2023-06-14T11:30:22;2.10;;;1.20;;
64957;SDS011;51486;50.232;19.208;2023-06-14T11:33:16;1.60;;;0.90;;
64957;SDS011;51486;50.232;19.208;2023-06-14T11:36:06;1.63;;;1.00;;
64957;SDS011;51486;50.232;19.208;2023-06-14T11:39:00;2.37;;;1.30;;
64957;SDS011;51486;50.232;19.208;2023-06-14T11:41:46;1.10;;;1.00;;
64957;SDS011;51486;50.232;19.208;2023-06-14T11:44:32;1.17;;;1.00;;
64957;SDS011;51486;50.232;19.208;2023-06-14T11:47:18;1.03;;;0.90;;
64957;SDS011;51486;50.232;19.208;2023-06-14T11:50:05;3.50;;;0.80;;
64957;SDS011;51486;50.232;19.208;2023-06-14T11:52:53;1.47;;;1.00;;
64957;SDS011;51486;50.232;19.208;2023-06-14T11:55:39;1.57;;;0.90;;
64957;SDS011;51486;50.232;19.208;2023-06-14T11:58:26;1.27;;;1.07;;
64957;SDS011;51486;50.232;19.208;2023-06-14T12:01:16;0.80;;;0.80;;
64957;SDS011;51486;50.232;19.208;2023-06-14T12:04:03;1.60;;;1.20;;
64957;SDS011;51486;50.232;19.208;2023-06-14T12:06:49;0.60;;;0.60;;
64957;SDS011;51486;50.232;19.208;2023-06-14T12:09:35;1.43;;;0.97;;
64957;SDS011;51486;50.232;19.208;2023-06-14T12:12:21;1.10;;;0.80;;
64957;SDS011;51486;50.232;19.208;2023-06-14T12:15:08;1.10;;;0.87;;
64957;SDS011;51486;50.232;19.208;2023-06-14T12:17:57;1.47;;;0.97;;
64957;SDS011;51486;50.232;19.208;2023-06-14T12:20:43;1.73;;;1.00;;
64957;SDS011;51486;50.232;19.208;2023-06-14T12:23:44;1.17;;;0.97;;
64957;SDS011;51486;50.232;19.208;2023-06-14T12:26:32;1.77;;;0.93;;
64957;SDS011;51486;50.232;19.208;2023-06-14T12:29:19;1.40;;;1.03;;
64957;SDS011;51486;50.232;19.208;2023-06-14T12:32:05;1.00;;;0.80;;
64957;SDS011;51486;50.232;19.208;2023-06-14T12:34:51;1.60;;;0.93;;
64957;SDS011;51486;50.232;19.208;2023-06-14T12:37:37;0.97;;;0.87;;
64957;SDS011;51486;50.232;19.208;2023-06-14T12:40:23;4.77;;;2.83;;
64957;SDS011;51486;50.232;19.208;2023-06-14T12:43:09;2.53;;;1.40;;
64957;SDS011;51486;50.232;19.208;2023-06-14T12:45:54;1.83;;;1.20;;
64957;SDS011;51486;50.232;19.208;2023-06-14T12:48:40;1.03;;;0.87;;
64957;SDS011;51486;50.232;19.208;2023-06-14T12:51:26;1.20;;;1.10;;
64957;SDS011;51486;50.232;19.208;2023-06-14T12:54:12;1.40;;;0.83;;
64957;SDS011;51486;50.232;19.208;2023-06-14T12:56:59;1.37;;;1.07;;
64957;SDS011;51486;50.232;19.208;2023-06-14T12:59:45;1.13;;;0.90;;
64957;SDS011;51486;50.232;19.208;2023-06-14T13:02:31;5.13;;;1.37;;
64957;SDS011;51486;50.232;19.208;2023-06-14T13:05:17;1.63;;;1.13;;
64957;SDS011;51486;50.232;19.208;2023-06-14T13:08:03;2.70;;;1.57;;
64957;SDS011;51486;50.232;19.208;2023-06-14T13:10:49;1.70;;;1.13;;
64957;SDS011;51486;50.232;19.208;2023-06-14T13:13:35;2.87;;;1.47;;
64957;SDS011;51486;50.232;19.208;2023-06-14T13:16:21;1.57;;;1.17;;
64957;SDS011;51486;50.232;19.208;2023-06-14T13:19:07;1.63;;;1.20;;
64957;SDS011;51486;50.232;19.208;2023-06-14T13:21:52;4.57;;;1.33;;
64957;SDS011;51486;50.232;19.208;2023-06-14T13:24:38;2.50;;;1.50;;
64957;SDS011;51486;50.232;19.208;2023-06-14T13:27:25;2.57;;;1.30;;
64957;SDS011;51486;50.232;19.208;2023-06-14T13:30:11;3.07;;;1.70;;
64957;SDS011;51486;50.232;19.208;2023-06-14T13:32:58;2.90;;;1.80;;
64957;SDS011;51486;50.232;19.208;2023-06-14T13:35:44;3.80;;;1.70;;
64957;SDS011;51486;50.232;19.208;2023-06-14T13:38:30;2.53;;;1.47;;
64957;SDS011;51486;50.232;19.208;2023-06-14T13:41:15;5.43;;;2.23;;
64957;SDS011;51486;50.232;19.208;2023-06-14T13:44:01;2.73;;;1.37;;
64957;SDS011;51486;50.232;19.208;2023-06-14T13:46:49;2.50;;;1.80;;
64957;SDS011;51486;50.232;19.208;2023-06-14T13:49:35;2.27;;;1.67;;
64957;SDS011;51486;50.232;19.208;2023-06-14T13:52:21;2.27;;;1.80;;
64957;SDS011;51486;50.232;19.208;2023-06-14T13:55:06;2.10;;;1.30;;
64957;SDS011;51486;50.232;19.208;2023-06-14T13:57:52;1.67;;;1.40;;
64957;SDS011;51486;50.232;19.208;2023-06-14T14:00:38;1.90;;;1.53;;
64957;SDS011;51486;50.232;19.208;2023-06-14T14:03:25;2.13;;;1.60;;
64957;SDS011;51486;50.232;19.208;2023-06-14T14:06:12;3.90;;;1.73;;
64957;SDS011;51486;50.232;19.208;2023-06-14T14:08:58;2.17;;;1.53;;
64957;SDS011;51486;50.232;19.208;2023-06-14T14:11:44;5.20;;;2.30;;
64957;SDS011;51486;50.232;19.208;2023-06-14T14:14:31;5.20;;;2.60;;
64957;SDS011;51486;50.232;19.208;2023-06-14T14:17:18;5.53;;;2.83;;
64957;SDS011;51486;50.232;19.208;2023-06-14T14:20:04;6.73;;;3.20;;
64957;SDS011;51486;50.232;19.208;2023-06-14T14:22:50;3.60;;;2.70;;
64957;SDS011;51486;50.232;19.208;2023-06-14T14:25:35;5.27;;;3.13;;
64957;SDS011;51486;50.232;19.208;2023-06-14T14:28:21;4.83;;;2.80;;
64957;SDS011;51486;50.232;19.208;2023-06-14T14:31:07;7.33;;;3.07;;
64957;SDS011;51486;50.232;19.208;2023-06-14T14:33:52;4.87;;;2.17;;
64957;SDS011;51486;50.232;19.208;2023-06-14T14:36:38;3.40;;;1.87;;
64957;SDS011;51486;50.232;19.208;2023-06-14T14:39:27;3.87;;;1.73;;
64957;SDS011;51486;50.232;19.208;2023-06-14T14:42:13;6.87;;;2.23;;
64957;SDS011;51486;50.232;19.208;2023-06-14T14:44:59;5.40;;;1.80;;
64957;SDS011;51486;50.232;19.208;2023-06-14T14:47:44;4.72;;;2.55;;
64957;SDS011;51486;50.232;19.208;2023-06-14T14:50:30;4.33;;;2.33;;
64957;SDS011;51486;50.232;19.208;2023-06-14T14:53:16;6.07;;;2.70;;
64957;SDS011;51486;50.232;19.208;2023-06-14T14:56:02;5.40;;;2.43;;
64957;SDS011;51486;50.232;19.208;2023-06-14T14:58:47;5.60;;;2.55;;
64957;SDS011;51486;50.232;19.208;2023-06-14T15:01:34;8.63;;;2.80;;
64957;SDS011;51486;50.232;19.208;2023-06-14T15:04:20;3.60;;;2.25;;
64957;SDS011;51486;50.232;19.208;2023-06-14T15:07:05;6.03;;;2.20;;
64957;SDS011;51486;50.232;19.208;2023-06-14T15:09:51;6.65;;;2.40;;
64957;SDS011;51486;50.232;19.208;2023-06-14T15:12:37;3.78;;;1.95;;
64957;SDS011;51486;50.232;19.208;2023-06-14T15:15:23;2.25;;;1.80;;
64957;SDS011;51486;50.232;19.208;2023-06-14T15:18:09;4.40;;;2.03;;
64957;SDS011;51486;50.232;19.208;2023-06-14T15:20:55;4.47;;;2.33;;
64957;SDS011;51486;50.232;19.208;2023-06-14T15:23:41;1.77;;;1.27;;
64957;SDS011;51486;50.232;19.208;2023-06-14T15:26:26;3.87;;;2.60;;
64957;SDS011;51486;50.232;19.208;2023-06-14T15:29:14;3.47;;;2.00;;
64957;SDS011;51486;50.232;19.208;2023-06-14T15:32:03;4.03;;;1.90;;
64957;SDS011;51486;50.232;19.208;2023-06-14T15:34:50;3.50;;;2.37;;
64957;SDS011;51486;50.232;19.208;2023-06-14T15:37:36;2.97;;;1.80;;
64957;SDS011;51486;50.232;19.208;2023-06-14T15:40:21;7.40;;;2.47;;
64957;SDS011;51486;50.232;19.208;2023-06-14T15:43:07;3.83;;;2.40;;
64957;SDS011;51486;50.232;19.208;2023-06-14T15:45:53;3.37;;;2.10;;
64957;SDS011;51486;50.232;19.208;2023-06-14T15:48:39;7.50;;;2.03;;
64957;SDS011;51486;50.232;19.208;2023-06-14T15:51:25;3.07;;;1.73;;
64957;SDS011;51486;50.232;19.208;2023-06-14T15:54:11;3.40;;;2.07;;
64957;SDS011;51486;50.232;19.208;2023-06-14T15:56:57;3.93;;;2.13;;
64957;SDS011;51486;50.232;19.208;2023-06-14T15:59:42;2.77;;;1.80;;
64957;SDS011;51486;50.232;19.208;2023-06-14T16:02:28;2.73;;;1.83;;
64957;SDS011;51486;50.232;19.208;2023-06-14T16:05:14;3.10;;;2.03;;
64957;SDS011;51486;50.232;19.208;2023-06-14T16:08:00;5.10;;;2.77;;
64957;SDS011;51486;50.232;19.208;2023-06-14T16:10:45;6.07;;;2.73;;
64957;SDS011;51486;50.232;19.208;2023-06-14T16:13:31;6.03;;;3.10;;
64957;SDS011;51486;50.232;19.208;2023-06-14T16:16:17;11.33;;;3.50;;
64957;SDS011;51486;50.232;19.208;2023-06-14T16:19:03;18.07;;;3.73;;
64957;SDS011;51486;50.232;19.208;2023-06-14T16:21:50;5.33;;;2.90;;
64957;SDS011;51486;50.232;19.208;2023-06-14T16:24:35;6.00;;;3.60;;
64957;SDS011;51486;50.232;19.208;2023-06-14T16:27:21;5.97;;;2.67;;
64957;SDS011;51486;50.232;19.208;2023-06-14T16:30:07;4.07;;;2.90;;
64957;SDS011;51486;50.232;19.208;2023-06-14T16:32:53;4.87;;;2.40;;
64957;SDS011;51486;50.232;19.208;2023-06-14T16:35:39;4.27;;;2.33;;
64957;SDS011;51486;50.232;19.208;2023-06-14T16:38:24;8.50;;;4.00;;